An Run Da 2 — BHNX — position and weather

sailwx.info

Track history (hours):
 
Tides and Currents Weather Stations Pressure Air Temp Water Temp Dewpoint Dewpoint Depression Visibility Wind Speed Wind Dir Waves Ship Positions

An Run Da 2

Last reported at 2015-Aug-31 18:29 UTC. Time now 2015-Sep-01 12:13 UTC.
Position N 29°44' E 122°38'.

Length 147 m; draft 8.5 m.

Type: Cargo ship. MMSI: 413360230.

Date/timePositionNaut miles runAvg speedWind from/ knotsBaromVisibWave heightAir tempDewpointWater temp
2015-Aug-31 18:29N 29°44' E 122°38'86 8.7
2015-Aug-31 08:34N 31°08' E 122°15'1313.4
2015-Aug-31 07:33N 31°15' E 122°01'1110.7
2015-Aug-31 06:33N 31°17' E 121°49'9 8.5
2015-Aug-31 05:33N 31°21' E 121°40'7 7.0
2015-Aug-31 04:33N 31°24' E 121°33'6 6.1
2015-Aug-31 03:33N 31°28' E 121°27'9 8.9
2015-Aug-31 02:34N 31°34' E 121°19'1212.1
2015-Aug-31 01:33N 31°42' E 121°09'1211.6
2015-Aug-31 00:33N 31°47' E 120°56'1211.6
2015-Aug-30 23:34N 31°58' E 120°51'9 9.5
2015-Aug-30 22:34N 31°60' E 120°40'8 7.5
2015-Aug-30 21:33N 32°03' E 120°32'6 5.9
2015-Aug-30 20:33N 32°03' E 120°25'3 2.5
2015-Aug-30 19:28N 32°01' E 120°24'0 0.1
2015-Aug-30 14:34N 32°01' E 120°24'9 8.7
2015-Aug-30 13:31N 31°56' E 120°15'  
Track history (hours):
 
Tides and Currents Weather Stations Pressure Air Temp Water Temp Dewpoint Dewpoint Depression Visibility Wind Speed Wind Dir Waves Ship Positions

An Run Da 2

Last reported at 2015-Aug-31 18:29 UTC. Time now 2015-Sep-01 12:13 UTC.
Position N 29°44' E 122°38'.

Length 147 m; draft 8.5 m.

Type: Cargo ship. MMSI: 413360230.

Date/timePositionNaut miles runAvg speedWind from/ knotsBaromVisibWave heightAir tempDewpointWater temp
2015-Aug-31 18:29N 29°44' E 122°38'86 8.7
2015-Aug-31 08:34N 31°08' E 122°15'1313.4
2015-Aug-31 07:33N 31°15' E 122°01'1110.7
2015-Aug-31 06:33N 31°17' E 121°49'9 8.5
2015-Aug-31 05:33N 31°21' E 121°40'7 7.0
2015-Aug-31 04:33N 31°24' E 121°33'6 6.1
2015-Aug-31 03:33N 31°28' E 121°27'9 8.9
2015-Aug-31 02:34N 31°34' E 121°19'1212.1
2015-Aug-31 01:33N 31°42' E 121°09'1211.6
2015-Aug-31 00:33N 31°47' E 120°56'1211.6
2015-Aug-30 23:34N 31°58' E 120°51'9 9.5
2015-Aug-30 22:34N 31°60' E 120°40'8 7.5
2015-Aug-30 21:33N 32°03' E 120°32'6 5.9
2015-Aug-30 20:33N 32°03' E 120°25'3 2.5
2015-Aug-30 19:28N 32°01' E 120°24'0 0.1
2015-Aug-30 14:34N 32°01' E 120°24'9 8.7
2015-Aug-30 13:31N 31°56' E 120°15'  

Dump ship's entire track history